Time;durP1;ratioP1;P1;durP2;ratioP2;P2;SDS_P1;SDS_P2;PMS_P1;PMS_P2;Temp;Humidity;BMP_temperature;BMP_pressure;BME280_temperature;BME280_humidity;BME280_pressure;Samples;Min_cycle;Max_cycle;Signal;HPM_P1;HPM_P2
2023/04/23 00:00:47;;;;;;;18.30;14.55;;;;;;;12.04;90.69;100378.13;5042443;28;20482;-63
2023/04/23 00:03:13;;;;;;;19.67;14.50;;;;;;;12.03;90.71;100379.88;5051168;28;20040;-63
2023/04/23 00:05:41;;;;;;;22.45;16.20;;;;;;;12.03;90.27;100377.28;5064446;28;20039;-64
2023/04/23 00:08:07;;;;;;;22.88;15.20;;;;;;;12.02;90.58;100374.72;5060691;28;20147;-64
2023/04/23 00:10:32;;;;;;;20.15;14.40;;;;;;;12.02;90.88;100378.16;5044919;28;20799;-63
2023/04/23 00:12:58;;;;;;;23.23;17.08;;;;;;;12.00;90.84;100374.75;5040445;28;20045;-64
2023/04/23 00:15:24;;;;;;;20.42;14.25;;;;;;;11.99;91.28;100380.81;5041828;28;20049;-64
2023/04/23 00:17:49;;;;;;;24.13;17.17;;;;;;;11.97;92.15;100384.31;5042011;28;20031;-64
2023/04/23 00:20:15;;;;;;;23.92;16.05;;;;;;;11.97;92.13;100373.94;5037786;28;20032;-64
2023/04/23 00:22:42;;;;;;;20.13;13.63;;;;;;;11.94;92.17;100374.88;5058515;28;20037;-63
2023/04/23 00:25:08;;;;;;;23.73;17.95;;;;;;;11.92;92.76;100368.88;5041972;28;20059;-63
2023/04/23 00:27:34;;;;;;;20.58;15.48;;;;;;;11.92;92.60;100363.69;5039696;28;20044;-64
2023/04/23 00:30:00;;;;;;;24.50;16.48;;;;;;;11.89;92.99;100364.63;5040893;28;20029;-63
2023/04/23 00:32:25;;;;;;;21.00;14.93;;;;;;;11.88;92.93;100362.03;5041326;28;20825;-64
2023/04/23 00:34:51;;;;;;;18.13;13.68;;;;;;;11.87;92.90;100370.72;5041407;28;20110;-64
2023/04/23 00:37:16;;;;;;;21.10;15.18;;;;;;;11.88;93.08;100362.03;5040453;28;20047;-63
2023/04/23 00:39:43;;;;;;;21.05;15.45;;;;;;;11.86;93.93;100363.81;5038842;28;20049;-64
2023/04/23 00:42:11;;;;;;;21.45;15.05;;;;;;;11.85;93.57;100364.69;5036199;28;20036;-64
2023/04/23 00:44:40;;;;;;;24.92;16.42;;;;;;;11.84;93.56;100368.19;5033433;28;20549;-64
2023/04/23 00:47:06;;;;;;;21.88;17.15;;;;;;;11.81;93.55;100361.31;5046167;28;20050;-63
2023/04/23 00:49:35;;;;;;;22.88;17.23;;;;;;;11.78;93.95;100363.13;5042057;28;20145;-63
2023/04/23 00:52:02;;;;;;;31.02;19.73;;;;;;;11.76;94.46;100351.94;5039604;28;20057;-64
2023/04/23 00:54:27;;;;;;;23.88;18.20;;;;;;;11.72;95.21;100356.31;5035465;28;20689;-63
2023/04/23 00:56:54;;;;;;;23.02;16.98;;;;;;;11.70;95.30;100358.09;5040725;28;20037;-64
2023/04/23 00:59:20;;;;;;;21.92;16.67;;;;;;;11.67;95.97;100350.38;5041539;28;20561;-63
2023/04/23 01:01:46;;;;;;;27.17;16.73;;;;;;;11.67;95.65;100349.50;5035149;28;20037;-64
2023/04/23 01:04:15;;;;;;;25.25;17.35;;;;;;;11.64;96.10;100352.16;5039830;28;20160;-64
2023/04/23 01:06:41;;;;;;;26.48;17.92;;;;;;;11.62;96.08;100348.75;5039661;28;20423;-63
2023/04/23 01:09:08;;;;;;;24.00;18.02;;;;;;;11.60;95.99;100337.59;5037325;28;20048;-64
2023/04/23 01:11:37;;;;;;;29.77;20.55;;;;;;;11.57;96.68;100342.84;5037660;28;20029;-63
2023/04/23 01:14:03;;;;;;;25.92;18.60;;;;;;;11.52;96.96;100340.31;5039356;28;20056;-63
2023/04/23 01:16:29;;;;;;;27.92;19.85;;;;;;;11.46;97.03;100347.31;5046564;28;20060;-63
2023/04/23 01:18:55;;;;;;;24.63;17.98;;;;;;;11.37;97.09;100345.75;5039384;28;20036;-64
2023/04/23 01:21:22;;;;;;;28.83;18.65;;;;;;;11.34;96.89;100350.97;5038696;28;20033;-64
2023/04/23 01:23:48;;;;;;;24.60;17.65;;;;;;;11.26;97.02;100345.94;5037715;28;20028;-63
2023/04/23 01:26:14;;;;;;;26.23;18.48;;;;;;;11.18;97.19;100345.22;5034864;28;20098;-64
2023/04/23 01:28:41;;;;;;;25.67;18.90;;;;;;;11.14;97.46;100347.88;5038367;28;20037;-64
2023/04/23 01:31:07;;;;;;;30.92;20.85;;;;;;;11.11;98.47;100351.38;5040757;28;20040;-64
2023/04/23 01:33:34;;;;;;;32.85;20.70;;;;;;;11.05;98.29;100353.22;5039982;28;20052;-64
2023/04/23 01:36:01;;;;;;;32.78;20.95;;;;;;;11.03;99.11;100350.66;5039102;28;20072;-64
2023/04/23 01:38:30;;;;;;;33.47;22.17;;;;;;;11.01;99.39;100342.06;5038696;28;20047;-64
2023/04/23 01:40:56;;;;;;;31.67;21.95;;;;;;;10.96;100.00;100348.19;5036727;28;20815;-64
2023/04/23 01:43:24;;;;;;;34.65;22.20;;;;;;;10.93;100.00;100350.81;5036196;28;20041;-64
2023/04/23 01:45:50;;;;;;;31.98;22.08;;;;;;;10.89;99.76;100344.84;5039696;28;20040;-63
2023/04/23 01:48:16;;;;;;;32.40;22.48;;;;;;;10.87;99.73;100348.34;5041045;28;20561;-64
2023/04/23 01:50:42;;;;;;;33.35;23.38;;;;;;;10.85;100.00;100358.72;5042876;28;20117;-64
2023/04/23 01:53:08;;;;;;;37.10;26.20;;;;;;;10.85;100.00;100352.69;5053485;28;20110;-64
2023/04/23 01:55:36;;;;;;;37.45;25.00;;;;;;;10.83;100.00;100349.28;5047630;28;20362;-64
2023/04/23 01:58:02;;;;;;;35.35;22.70;;;;;;;10.82;100.00;100345.84;5052497;28;20044;-63
2023/04/23 02:00:27;;;;;;;36.35;24.58;;;;;;;10.80;100.00;100353.59;5059321;28;20051;-64
2023/04/23 02:02:53;;;;;;;34.97;25.00;;;;;;;10.77;100.00;100353.66;5061683;28;20020;-63
2023/04/23 02:05:19;;;;;;;40.65;25.70;;;;;;;10.73;100.00;100349.44;5062459;28;20436;-64
2023/04/23 02:07:46;;;;;;;37.05;25.42;;;;;;;10.73;100.00;100353.75;5060786;28;20040;-64
2023/04/23 02:10:12;;;;;;;43.60;26.90;;;;;;;10.74;100.00;100342.53;5061239;28;20037;-64
2023/04/23 02:12:38;;;;;;;41.85;27.70;;;;;;;10.72;100.00;100346.84;5064491;28;20073;-64
2023/04/23 02:15:05;;;;;;;44.75;29.80;;;;;;;10.69;100.00;100340.00;5061383;28;20041;-63
2023/04/23 02:17:31;;;;;;;43.22;28.42;;;;;;;10.69;100.00;100341.72;5063470;28;20037;-64
2023/04/23 02:19:57;;;;;;;36.75;25.13;;;;;;;10.68;100.00;100346.03;5041671;28;20033;-64
2023/04/23 02:22:24;;;;;;;35.28;23.15;;;;;;;10.68;100.00;100348.63;5040754;28;20090;-64
2023/04/23 02:24:53;;;;;;;41.97;26.95;;;;;;;10.69;100.00;100347.75;5044959;28;20513;-63
2023/04/23 02:27:19;;;;;;;41.15;26.50;;;;;;;10.69;100.00;100349.47;5056132;28;20695;-64
2023/04/23 02:29:45;;;;;;;48.30;29.10;;;;;;;10.69;100.00;100340.00;5041084;28;20033;-64
2023/04/23 02:32:11;;;;;;;43.60;28.60;;;;;;;10.68;100.00;100332.28;5043134;28;20045;-64
2023/04/23 02:34:36;;;;;;;47.22;29.80;;;;;;;10.66;100.00;100344.38;5042207;28;20502;-64
2023/04/23 02:37:06;;;;;;;48.85;29.85;;;;;;;10.63;100.00;100345.28;5041722;28;20049;-63
2023/04/23 02:39:32;;;;;;;45.33;28.33;;;;;;;10.59;100.00;100343.63;5040397;28;20102;-63
2023/04/23 02:41:57;;;;;;;45.38;29.30;;;;;;;10.55;100.00;100339.38;5040474;28;20037;-64
2023/04/23 02:44:25;;;;;;;44.17;28.42;;;;;;;10.52;100.00;100341.13;5041037;28;20083;-64
2023/04/23 02:46:51;;;;;;;36.70;24.23;;;;;;;10.45;100.00;100330.03;5046077;28;20409;-63
2023/04/23 02:49:18;;;;;;;40.00;26.08;;;;;;;10.41;100.00;100337.88;5039780;28;20486;-64
2023/04/23 02:51:44;;;;;;;45.20;27.70;;;;;;;10.35;100.00;100331.06;5049277;28;20037;-63
2023/04/23 02:54:10;;;;;;;48.42;29.20;;;;;;;10.34;100.00;100329.34;5056651;28;20060;-64
2023/04/23 02:56:35;;;;;;;50.25;32.60;;;;;;;10.29;100.00;100331.16;5055578;28;20047;-64
2023/04/23 02:59:01;;;;;;;49.85;31.88;;;;;;;10.24;100.00;100326.03;5062415;28;20040;-64
2023/04/23 03:01:26;;;;;;;55.33;31.38;;;;;;;10.20;100.00;100321.81;5064794;28;20033;-64
2023/04/23 03:03:52;;;;;;;47.45;29.33;;;;;;;10.15;100.00;100323.56;5057745;28;20795;-64
2023/04/23 03:06:18;;;;;;;54.67;32.00;;;;;;;10.17;100.00;100323.56;5049379;28;20159;-64
2023/04/23 03:08:43;;;;;;;47.35;29.58;;;;;;;10.11;100.00;100321.94;5056026;28;20485;-64
2023/04/23 03:11:08;;;;;;;50.58;30.48;;;;;;;10.11;100.00;100321.94;5045145;28;20108;-63
2023/04/23 03:13:34;;;;;;;53.33;32.17;;;;;;;10.07;100.00;100320.25;5040109;28;20049;-64
2023/04/23 03:15:59;;;;;;;56.70;32.00;;;;;;;10.07;100.00;100316.81;5039984;28;20033;-64
2023/04/23 03:18:25;;;;;;;60.85;32.03;;;;;;;10.09;100.00;100327.97;5033817;28;20047;-64
2023/04/23 03:20:50;;;;;;;62.92;34.97;;;;;;;10.14;100.00;100332.22;5040531;28;20079;-64
2023/04/23 03:23:16;;;;;;;59.30;33.40;;;;;;;10.17;100.00;100329.59;5043964;28;20025;-63
2023/04/23 03:25:41;;;;;;;58.17;32.17;;;;;;;10.23;100.00;100320.91;5036931;28;20049;-64
2023/04/23 03:28:07;;;;;;;61.67;31.83;;;;;;;10.26;100.00;100328.63;5045049;28;20371;-64
2023/04/23 03:30:32;;;;;;;62.13;33.40;;;;;;;10.27;100.00;100326.88;5038082;28;20556;-64
2023/04/23 03:32:58;;;;;;;65.80;36.50;;;;;;;10.28;100.00;100333.75;5038679;28;20410;-64
2023/04/23 03:35:25;;;;;;;54.38;30.55;;;;;;;10.27;100.00;100329.47;5041054;28;20381;-64
2023/04/23 03:37:51;;;;;;;57.55;31.88;;;;;;;10.29;100.00;100320.81;5040663;28;20041;-63
2023/04/23 03:40:16;;;;;;;59.58;33.20;;;;;;;10.32;100.00;100325.09;5041882;28;20457;-63
2023/04/23 03:42:42;;;;;;;61.38;33.83;;;;;;;10.35;100.00;100328.47;5047179;28;20689;-64
2023/04/23 03:45:08;;;;;;;56.80;32.63;;;;;;;10.36;100.00;100321.56;5034920;28;20044;-64
2023/04/23 03:47:33;;;;;;;61.00;34.20;;;;;;;10.39;100.00;100318.94;5041634;28;20075;-64
2023/04/23 03:49:59;;;;;;;53.05;30.10;;;;;;;10.38;100.00;100315.53;5039883;28;20066;-63
2023/04/23 03:52:24;;;;;;;54.15;32.22;;;;;;;10.40;100.00;100316.34;5056002;28;20056;-63
2023/04/23 03:54:50;;;;;;;47.75;27.73;;;;;;;10.43;100.00;100311.13;5045567;28;20041;-64
2023/04/23 03:57:15;;;;;;;55.45;32.13;;;;;;;10.49;100.00;100312.75;5045035;28;20537;-64
2023/04/23 03:59:40;;;;;;;47.33;29.70;;;;;;;10.51;100.00;100316.16;5042420;28;20037;-64
2023/04/23 04:02:06;;;;;;;51.08;29.17;;;;;;;10.55;100.00;100310.09;5040487;28;20829;-63
2023/04/23 04:04:32;;;;;;;47.83;28.60;;;;;;;10.59;100.00;100312.63;5039377;28;20127;-68
2023/04/23 04:06:59;;;;;;;46.47;28.20;;;;;;;10.65;100.00;100312.50;5039109;28;20045;-69
2023/04/23 04:09:26;;;;;;;46.28;27.90;;;;;;;10.69;100.00;100311.56;5044925;28;20120;-69
2023/04/23 04:11:54;;;;;;;48.05;29.23;;;;;;;10.71;100.00;100307.22;5043546;28;20060;-69
2023/04/23 04:14:21;;;;;;;47.67;27.60;;;;;;;10.74;100.00;100302.00;5042127;28;20110;-69
2023/04/23 04:16:46;;;;;;;45.55;29.50;;;;;;;10.78;100.00;100303.66;5044790;28;20119;-68
2023/04/23 04:19:11;;;;;;;43.10;26.67;;;;;;;10.84;100.00;100299.25;5041073;28;20033;-69
2023/04/23 04:21:37;;;;;;;40.15;26.13;;;;;;;10.86;100.00;100294.94;5035241;28;20116;-68
2023/04/23 04:24:03;;;;;;;42.05;26.63;;;;;;;10.88;100.00;100282.84;5037373;28;20036;-68
2023/04/23 04:26:31;;;;;;;37.58;25.60;;;;;;;10.91;100.00;100285.38;5040613;28;20024;-68
2023/04/23 04:29:00;;;;;;;38.75;24.20;;;;;;;10.93;100.00;100286.19;5040828;28;20666;-69
2023/04/23 04:31:28;;;;;;;36.97;24.95;;;;;;;10.94;100.00;100291.34;5040360;28;20037;-68
2023/04/23 04:33:54;;;;;;;32.67;22.73;;;;;;;10.96;100.00;100289.56;5044334;28;20445;-69
2023/04/23 04:36:20;;;;;;;32.65;21.77;;;;;;;10.98;100.00;100290.38;5040395;28;20040;-69
2023/04/23 04:38:46;;;;;;;35.70;21.67;;;;;;;11.00;100.00;100287.78;5036282;28;20079;-68
2023/04/23 04:41:12;;;;;;;36.30;23.23;;;;;;;11.02;100.00;100294.63;5038026;28;20032;-68
2023/04/23 04:43:38;;;;;;;31.50;21.23;;;;;;;11.05;100.00;100298.91;5061742;28;20032;-68
2023/04/23 04:46:04;;;;;;;29.10;19.75;;;;;;;11.06;100.00;100296.31;5047730;28;20152;-69
2023/04/23 04:48:29;;;;;;;29.40;21.25;;;;;;;11.09;100.00;100298.84;5038945;28;20060;-68
2023/04/23 04:50:55;;;;;;;29.63;20.55;;;;;;;11.13;100.00;100300.47;5038758;28;20148;-68
2023/04/23 04:53:21;;;;;;;27.60;17.45;;;;;;;11.17;100.00;100307.31;5061610;28;20081;-68
2023/04/23 04:55:46;;;;;;;34.13;22.73;;;;;;;11.16;100.00;100304.72;5061925;28;20048;-69
2023/04/23 04:58:11;;;;;;;32.35;22.58;;;;;;;11.18;100.00;100305.56;5043684;28;20071;-68
2023/04/23 05:00:37;;;;;;;34.35;22.33;;;;;;;11.23;100.00;100312.38;5043866;28;20045;-68
2023/04/23 05:03:03;;;;;;;36.08;23.02;;;;;;;11.25;100.00;100315.75;5049740;28;20037;-68
2023/04/23 05:05:28;;;;;;;30.17;21.25;;;;;;;11.32;100.00;100319.09;5044272;28;20124;-68
2023/04/23 05:07:54;;;;;;;28.73;19.95;;;;;;;11.36;100.00;100313.00;5062419;28;20055;-68
2023/04/23 05:10:20;;;;;;;30.55;19.10;;;;;;;11.45;100.00;100307.69;5047538;28;20029;-68
2023/04/23 05:12:46;;;;;;;23.48;17.45;;;;;;;11.55;100.00;100313.50;5046088;28;20123;-69
2023/04/23 05:15:12;;;;;;;21.55;15.52;;;;;;;11.63;100.00;100311.66;5045564;28;20037;-68
2023/04/23 05:17:39;;;;;;;22.58;15.18;;;;;;;11.74;100.00;100309.69;5038781;28;20037;-68
2023/04/23 05:20:05;;;;;;;18.30;13.70;;;;;;;11.84;98.79;100309.44;5046243;28;20021;-68
2023/04/23 05:22:30;;;;;;;17.15;12.65;;;;;;;11.94;98.34;100311.84;5044505;28;20037;-69
2023/04/23 05:24:56;;;;;;;15.90;12.15;;;;;;;12.03;97.12;100319.44;5041822;28;20032;-68
2023/04/23 05:27:21;;;;;;;14.07;11.25;;;;;;;12.11;96.59;100307.19;5042612;28;20033;-68
2023/04/23 05:29:46;;;;;;;14.98;11.32;;;;;;;12.20;96.05;100309.53;5038596;28;20430;-68
2023/04/23 05:32:12;;;;;;;15.05;10.25;;;;;;;12.27;95.16;100306.81;5039520;28;20120;-68
2023/04/23 05:34:38;;;;;;;13.30;10.65;;;;;;;12.35;94.49;100310.06;5043208;28;20414;-68
2023/04/23 05:37:04;;;;;;;12.07;10.07;;;;;;;12.46;94.34;100307.25;5041987;28;20059;-69
2023/04/23 05:39:30;;;;;;;16.15;10.40;;;;;;;12.55;94.00;100301.84;5041921;28;20162;-68
2023/04/23 05:41:56;;;;;;;13.23;9.23;;;;;;;12.63;92.11;100299.06;5040960;28;20661;-68
2023/04/23 05:44:22;;;;;;;13.80;9.10;;;;;;;12.74;91.87;100291.84;5059234;28;20174;-68
2023/04/23 05:46:48;;;;;;;12.40;8.70;;;;;;;12.83;90.84;100291.63;5037111;28;20116;-69
2023/04/23 05:49:13;;;;;;;13.68;8.68;;;;;;;12.95;90.20;100291.31;5041163;28;20037;-68
2023/04/23 05:51:38;;;;;;;10.82;7.82;;;;;;;13.07;89.40;100287.59;5041034;28;20037;-69
2023/04/23 05:54:04;;;;;;;12.52;8.48;;;;;;;13.20;89.06;100294.16;5042960;28;20044;-69
2023/04/23 05:56:29;;;;;;;12.43;7.60;;;;;;;13.28;88.22;100294.81;5057790;28;20090;-68
2023/04/23 05:58:55;;;;;;;13.15;8.63;;;;;;;13.33;87.42;100304.16;5042198;28;20475;-68
2023/04/23 06:01:20;;;;;;;12.70;7.30;;;;;;;13.42;87.59;100303.06;5053272;28;20148;-69
2023/04/23 06:03:46;;;;;;;9.65;7.78;;;;;;;13.45;87.43;100306.44;5051083;28;20112;-69
2023/04/23 06:06:12;;;;;;;10.18;7.75;;;;;;;13.49;87.12;100296.81;5060646;28;20032;-68
2023/04/23 06:08:38;;;;;;;8.70;6.95;;;;;;;13.47;86.25;100296.84;5058805;28;20028;-68
2023/04/23 06:11:04;;;;;;;10.20;7.35;;;;;;;13.47;86.24;100298.63;5034223;28;20028;-68
2023/04/23 06:13:30;;;;;;;9.20;7.28;;;;;;;13.49;86.29;100312.41;5036468;28;20033;-68
2023/04/23 06:15:56;;;;;;;12.65;6.57;;;;;;;13.53;86.26;100303.66;5040722;28;20688;-68
2023/04/23 06:18:21;;;;;;;7.90;6.32;;;;;;;13.58;86.27;100299.16;5046453;28;20037;-69
2023/04/23 06:20:47;;;;;;;10.23;6.60;;;;;;;13.64;86.22;100290.34;5041031;28;20033;-68
2023/04/23 06:23:13;;;;;;;10.98;7.05;;;;;;;13.68;85.88;100289.38;5068300;28;20020;-69
2023/04/23 06:25:39;;;;;;;7.68;6.07;;;;;;;13.77;85.52;100289.94;5053581;28;20036;-69
2023/04/23 06:28:05;;;;;;;8.65;6.68;;;;;;;13.85;84.76;100280.19;5060748;28;20040;-69
2023/04/23 06:30:30;;;;;;;11.85;6.15;;;;;;;13.99;84.49;100279.78;5062119;28;20040;-69
2023/04/23 06:32:56;;;;;;;7.90;6.32;;;;;;;14.05;83.17;100283.06;5062258;28;20048;-69
2023/04/23 06:35:21;;;;;;;8.73;5.18;;;;;;;14.16;82.92;100279.28;5061666;28;20047;-69
2023/04/23 06:37:46;;;;;;;6.43;5.43;;;;;;;14.23;82.90;100292.03;5060280;28;20037;-69
2023/04/23 06:40:12;;;;;;;8.65;6.10;;;;;;;14.23;82.94;100294.63;5057852;28;20214;-69
2023/04/23 06:42:38;;;;;;;9.93;5.80;;;;;;;14.20;82.63;100302.53;5057213;28;20056;-69
2023/04/23 06:45:04;;;;;;;7.85;5.05;;;;;;;14.18;83.03;100301.72;5042227;28;20044;-70
2023/04/23 06:47:30;;;;;;;7.00;5.05;;;;;;;14.13;83.05;100296.66;5054528;28;20370;-69
2023/04/23 06:49:57;;;;;;;8.07;4.93;;;;;;;14.11;82.75;100290.66;5059336;28;20389;-69
2023/04/23 06:52:22;;;;;;;9.90;5.00;;;;;;;14.12;82.57;100296.72;5057634;28;20170;-69
2023/04/23 06:54:47;;;;;;;6.25;4.85;;;;;;;14.15;82.97;100290.56;5061889;28;20516;-69
2023/04/23 06:57:13;;;;;;;8.30;5.45;;;;;;;14.21;82.77;100286.03;5053667;28;20032;-68
2023/04/23 06:59:38;;;;;;;7.15;4.85;;;;;;;14.29;81.44;100273.66;5046887;28;20041;-68
2023/04/23 07:02:04;;;;;;;5.72;4.43;;;;;;;14.45;81.15;100268.84;5043542;28;20087;-70
2023/04/23 07:04:29;;;;;;;7.38;5.05;;;;;;;14.56;81.18;100277.16;5043358;28;20186;-69
2023/04/23 07:06:55;;;;;;;5.65;4.32;;;;;;;14.67;79.61;100272.44;5041955;28;20098;-69
2023/04/23 07:09:21;;;;;;;5.07;3.85;;;;;;;14.76;78.53;100261.75;5046098;28;20182;-69
2023/04/23 07:11:47;;;;;;;6.50;4.18;;;;;;;14.77;78.18;100265.19;5059713;28;20029;-68
2023/04/23 07:14:12;;;;;;;5.07;3.75;;;;;;;14.86;77.12;100260.53;5045273;28;20025;-69
2023/04/23 07:16:38;;;;;;;7.13;3.92;;;;;;;14.95;76.34;100257.63;5044464;28;20741;-69
2023/04/23 07:19:03;;;;;;;4.28;3.63;;;;;;;15.16;76.96;100264.69;5042224;28;20040;-69
2023/04/23 07:21:29;;;;;;;5.15;3.80;;;;;;;15.23;76.82;100263.56;5050488;28;20029;-69
2023/04/23 07:23:56;;;;;;;4.43;3.55;;;;;;;15.20;75.49;100255.00;5046920;28;23698;-69
2023/04/23 07:26:23;;;;;;;3.50;3.20;;;;;;;15.09;74.37;100244.13;5057971;28;20439;-69
2023/04/23 07:28:49;;;;;;;4.00;3.25;;;;;;;15.02;74.86;100251.28;5063982;28;20128;-69
2023/04/23 07:31:15;;;;;;;3.72;3.22;;;;;;;14.96;74.74;100254.09;5060039;28;20032;-69
2023/04/23 07:33:40;;;;;;;5.82;3.33;;;;;;;14.91;75.17;100262.97;5060555;28;20039;-69
2023/04/23 07:36:05;;;;;;;6.25;3.60;;;;;;;14.88;75.44;100250.91;5061424;28;20143;-69
2023/04/23 07:38:31;;;;;;;3.88;3.47;;;;;;;14.95;74.97;100239.41;5063112;28;20032;-69
2023/04/23 07:40:56;;;;;;;7.22;3.83;;;;;;;14.96;75.30;100241.09;5042072;28;20033;-69
2023/04/23 07:43:22;;;;;;;4.03;3.15;;;;;;;14.92;75.08;100242.13;5038920;28;20055;-69
2023/04/23 07:45:47;;;;;;;4.68;2.83;;;;;;;14.84;75.81;100246.72;5041841;28;20124;-69
2023/04/23 07:48:12;;;;;;;4.70;3.42;;;;;;;14.85;74.52;100248.41;5044477;28;20036;-69
2023/04/23 07:50:38;;;;;;;4.93;2.90;;;;;;;14.94;74.30;100236.84;5041667;28;20041;-68
2023/04/23 07:53:03;;;;;;;4.30;3.10;;;;;;;15.04;74.29;100233.03;5048828;28;20035;-69
2023/04/23 07:55:29;;;;;;;4.72;2.95;;;;;;;15.16;74.14;100235.22;5034978;28;20041;-69
2023/04/23 07:57:54;;;;;;;4.90;2.85;;;;;;;15.32;73.29;100235.47;5047436;28;20033;-69
2023/04/23 08:00:19;;;;;;;5.05;3.25;;;;;;;15.70;71.72;100221.97;5049426;28;20039;-69
2023/04/23 08:02:46;;;;;;;4.00;3.13;;;;;;;16.22;70.75;100216.41;5044013;28;20109;-69
2023/04/23 08:05:11;;;;;;;5.53;3.25;;;;;;;16.63;69.44;100186.00;5043083;28;20124;-69
2023/04/23 08:07:36;;;;;;;5.28;3.00;;;;;;;16.93;68.55;100178.66;5042208;28;20051;-69
2023/04/23 08:10:04;;;;;;;4.10;2.45;;;;;;;17.11;67.97;100174.38;5047870;28;20036;-69
2023/04/23 08:12:30;;;;;;;3.20;2.50;;;;;;;17.18;67.89;100178.44;5052369;28;20040;-69
2023/04/23 08:14:56;;;;;;;5.18;3.53;;;;;;;17.09;67.34;100176.22;5047291;28;20045;-69
2023/04/23 08:17:21;;;;;;;8.88;2.55;;;;;;;17.00;66.45;100164.41;5048088;28;20028;-69
2023/04/23 08:19:46;;;;;;;5.63;2.88;;;;;;;16.92;66.40;100163.88;5043072;28;20094;-69
2023/04/23 08:22:12;;;;;;;5.10;2.58;;;;;;;16.78;66.37;100169.72;5043490;28;20029;-69
2023/04/23 08:24:37;;;;;;;5.93;2.47;;;;;;;16.73;66.94;100176.03;5042491;28;20041;-69
2023/04/23 08:27:03;;;;;;;5.65;2.55;;;;;;;16.65;67.42;100185.94;5044108;28;20040;-69
2023/04/23 08:29:28;;;;;;;4.03;2.45;;;;;;;16.56;67.98;100187.16;5042507;28;20469;-69
2023/04/23 08:31:54;;;;;;;5.03;2.67;;;;;;;16.52;67.56;100184.75;5051477;28;20461;-69
2023/04/23 08:34:19;;;;;;;4.82;2.90;;;;;;;16.59;67.06;100175.78;5051693;28;20037;-69
2023/04/23 08:36:46;;;;;;;5.22;2.38;;;;;;;16.62;65.71;100154.75;5051903;28;20041;-69
2023/04/23 08:39:11;;;;;;;6.63;2.78;;;;;;;16.68;65.19;100142.28;5048296;28;20029;-70
2023/04/23 08:41:41;;;;;;;4.68;2.70;;;;;;;16.92;64.90;100148.22;5040128;28;20028;-69
2023/04/23 08:44:16;;;;;;;5.35;2.10;;;;;;;17.15;63.76;100124.56;5040789;28;20025;-69
2023/04/23 08:46:43;;;;;;;3.13;1.98;;;;;;;17.50;62.38;100098.56;5044702;28;20048;-69
2023/04/23 08:49:16;;;;;;;2.20;1.50;;;;;;;17.90;61.27;100093.13;5051593;28;20037;-69
2023/04/23 08:51:48;;;;;;;6.45;2.17;;;;;;;18.11;59.83;100059.84;5042772;28;20059;-69
2023/04/23 08:54:18;;;;;;;4.38;2.10;;;;;;;18.22;60.04;100075.88;5043887;28;20091;-69
2023/04/23 08:56:44;;;;;;;3.85;2.20;;;;;;;18.30;59.04;100061.47;5041400;28;20032;-70
2023/04/23 08:59:10;;;;;;;3.88;2.40;;;;;;;18.35;59.71;100076.91;5042372;28;20048;-69
2023/04/23 09:01:36;;;;;;;6.18;2.47;;;;;;;18.42;59.47;100073.06;5042810;28;20120;-70
2023/04/23 09:04:02;;;;;;;5.47;2.28;;;;;;;18.53;59.26;100066.38;5057204;28;20858;-70
2023/04/23 09:06:30;;;;;;;4.50;2.10;;;;;;;18.49;58.76;100061.38;5042794;28;20580;-70
2023/04/23 09:08:58;;;;;;;5.30;2.20;;;;;;;18.62;57.58;100032.78;5044964;28;20086;-69
2023/04/23 09:11:27;;;;;;;6.85;2.10;;;;;;;18.63;57.35;100008.28;5045447;28;20017;-69
2023/04/23 09:13:53;;;;;;;3.22;1.80;;;;;;;18.64;57.08;100002.16;5037260;28;20164;-69
2023/04/23 09:16:18;;;;;;;4.32;2.47;;;;;;;18.58;56.28;99990.22;5042149;28;20025;-69
2023/04/23 09:18:44;;;;;;;3.75;1.60;;;;;;;18.63;56.45;99989.97;5045160;28;20498;-70
2023/04/23 09:21:10;;;;;;;3.90;1.90;;;;;;;18.56;56.40;99993.84;5043384;28;20033;-69
2023/04/23 09:23:38;;;;;;;3.67;1.70;;;;;;;18.60;56.39;99987.53;5055355;28;20126;-69
2023/04/23 09:26:07;;;;;;;5.88;1.85;;;;;;;18.52;56.08;99978.28;5063670;28;20024;-71
2023/04/23 09:28:36;;;;;;;6.57;2.03;;;;;;;18.47;55.57;99969.00;5056071;28;20036;-70
2023/04/23 09:31:04;;;;;;;4.88;1.67;;;;;;;18.57;55.00;99948.41;5058961;28;20036;-69
2023/04/23 09:33:33;;;;;;;5.38;1.80;;;;;;;18.62;54.14;99936.78;5054888;28;20052;-70
2023/04/23 09:36:04;;;;;;;3.83;1.50;;;;;;;18.87;54.05;99933.69;5042506;28;20058;-70
2023/04/23 09:38:30;;;;;;;3.65;1.67;;;;;;;19.15;53.74;99932.97;5042514;28;20049;-70
2023/04/23 09:40:56;;;;;;;4.95;1.65;;;;;;;19.48;52.04;99908.31;5038298;28;20037;-70
2023/04/23 09:43:21;;;;;;;3.30;1.30;;;;;;;19.77;51.27;99888.22;5041096;28;20044;-71
2023/04/23 09:45:49;;;;;;;1.73;1.10;;;;;;;19.73;50.04;99868.38;5048170;28;20099;-69
2023/04/23 09:48:15;;;;;;;5.55;1.30;;;;;;;19.63;48.85;99857.59;5036511;28;20041;-70
2023/04/23 09:50:40;;;;;;;1.95;1.30;;;;;;;19.85;49.43;99864.22;5040923;28;20040;-68
2023/04/23 09:53:07;;;;;;;3.30;1.17;;;;;;;19.73;49.11;99868.38;5029425;28;20033;-69
2023/04/23 09:55:39;;;;;;;3.53;1.48;;;;;;;19.92;49.48;99889.97;5039999;28;20047;-70
2023/04/23 09:58:09;;;;;;;4.60;1.30;;;;;;;19.85;49.16;99883.41;5047858;28;20041;-69
2023/04/23 10:00:36;;;;;;;3.50;1.55;;;;;;;19.69;49.38;99879.13;5051931;28;20278;-70
2023/04/23 10:03:03;;;;;;;2.92;1.25;;;;;;;19.63;48.66;99878.56;5040311;28;20032;-69
2023/04/23 10:05:28;;;;;;;2.35;1.08;;;;;;;19.82;49.22;99878.34;5042432;28;20033;-70
2023/04/23 10:07:58;;;;;;;3.80;1.30;;;;;;;20.02;47.58;99850.91;5038933;28;20068;-70
2023/04/23 10:10:24;;;;;;;5.15;1.27;;;;;;;20.23;48.60;99862.69;5056328;28;20045;-71
2023/04/23 10:12:55;;;;;;;3.85;1.13;;;;;;;20.27;47.18;99844.97;5047827;28;20052;-70
2023/04/23 10:15:24;;;;;;;7.65;1.58;;;;;;;20.15;46.06;99830.84;5032169;28;20038;-70
2023/04/23 10:17:50;;;;;;;4.07;1.02;;;;;;;20.05;46.01;99829.72;5044728;28;20040;-69
2023/04/23 10:20:16;;;;;;;4.05;1.20;;;;;;;20.29;46.81;99845.72;5047333;28;20028;-69
2023/04/23 10:22:43;;;;;;;3.72;1.15;;;;;;;20.37;48.11;99865.28;5042802;28;20036;-69
2023/04/23 10:25:11;;;;;;;3.38;1.15;;;;;;;20.26;46.77;99849.38;5056674;28;20040;-70
2023/04/23 10:27:39;;;;;;;2.95;1.13;;;;;;;20.30;49.84;99890.25;5060928;28;20040;-70
2023/04/23 10:30:06;;;;;;;2.25;1.33;;;;;;;20.13;46.34;99841.44;5061517;28;20037;-69
2023/04/23 10:32:33;;;;;;;2.58;1.10;;;;;;;20.15;45.91;99843.97;5059849;28;20432;-69
2023/04/23 10:34:58;;;;;;;4.47;1.30;;;;;;;20.34;47.33;99869.88;5063628;28;20093;-69
2023/04/23 10:37:24;;;;;;;4.57;1.25;;;;;;;20.16;47.00;99859.59;5064494;28;20037;-71
2023/04/23 10:39:54;;;;;;;2.85;0.90;;;;;;;20.29;46.75;99850.97;5063505;28;20040;-69
2023/04/23 10:42:20;;;;;;;2.20;1.30;;;;;;;20.03;46.87;99852.59;5043480;28;20308;-70
2023/04/23 10:44:46;;;;;;;3.92;1.00;;;;;;;20.11;47.34;99866.06;5040740;28;20508;-70
2023/04/23 10:47:15;;;;;;;3.83;1.23;;;;;;;19.79;48.29;99865.44;5049656;28;20082;-69
2023/04/23 10:49:42;;;;;;;3.50;1.02;;;;;;;19.83;48.02;99861.66;5059950;28;20051;-70
2023/04/23 10:52:16;;;;;;;2.88;1.40;;;;;;;19.69;47.82;99853.75;5065764;28;20074;-70
2023/04/23 10:54:43;;;;;;;3.80;1.45;;;;;;;19.73;48.73;99881.50;5053791;28;20132;-70
2023/04/23 10:57:09;;;;;;;1.88;1.00;;;;;;;19.69;47.70;99868.66;5045365;28;20040;-69
2023/04/23 10:59:39;;;;;;;2.55;0.90;;;;;;;19.60;48.53;99868.28;5040503;28;20045;-70
2023/04/23 11:02:07;;;;;;;3.90;1.10;;;;;;;19.41;48.45;99864.22;5042136;28;20041;-69
2023/04/23 11:04:34;;;;;;;2.75;1.13;;;;;;;19.30;48.06;99850.88;5056188;28;20048;-69
2023/04/23 11:07:07;;;;;;;2.47;1.15;;;;;;;19.33;47.88;99848.91;5059423;28;20029;-70
2023/04/23 11:09:41;;;;;;;4.38;1.00;;;;;;;19.48;46.92;99839.31;5060669;28;20090;-70